Time;durP1;ratioP1;P1;durP2;ratioP2;P2;SDS_P1;SDS_P2;PMS_P1;PMS_P2;Temp;Humidity;BMP_temperature;BMP_pressure;BME280_temperature;BME280_humidity;BME280_pressure;Samples;Min_cycle;Max_cycle;Signal;HPM_P1;HPM_P2
2023/10/27 00:00:15;;;;;;;29.63;19.05;;;;;;;8.90;100.00;99158.59;1026725;28;20297;-52
2023/10/27 00:00:47;;;;;;;33.88;19.85;;;;;;;8.92;100.00;99159.13;1027444;28;20306;-51
2023/10/27 00:01:18;;;;;;;38.10;21.65;;;;;;;8.96;100.00;99156.78;1027772;28;20377;-52
2023/10/27 00:01:50;;;;;;;32.95;20.27;;;;;;;8.96;100.00;99156.78;1031355;28;20937;-50
2023/10/27 00:02:22;;;;;;;33.40;20.60;;;;;;;8.89;100.00;99156.97;1023459;28;20310;-55
2023/10/27 00:02:53;;;;;;;36.28;20.98;;;;;;;9.01;100.00;99154.19;1024166;28;20310;-54
2023/10/27 00:03:25;;;;;;;32.83;19.65;;;;;;;9.00;100.00;99157.91;1024460;28;20321;-51
2023/10/27 00:03:57;;;;;;;29.00;18.10;;;;;;;8.97;100.00;99155.75;1026936;28;20985;-55
2023/10/27 00:04:28;;;;;;;37.60;18.92;;;;;;;9.03;100.00;99156.59;1031591;28;20313;-55
2023/10/27 00:05:00;;;;;;;36.45;20.08;;;;;;;9.12;100.00;99157.78;1031634;28;21140;-55
2023/10/27 00:05:32;;;;;;;32.10;19.95;;;;;;;9.01;100.00;99153.38;1031881;28;20448;-55
2023/10/27 00:06:04;;;;;;;31.73;19.98;;;;;;;8.99;100.00;99157.09;1027100;28;20305;-55
2023/10/27 00:06:35;;;;;;;32.35;19.73;;;;;;;9.08;100.00;99159.34;1027212;28;20302;-55
2023/10/27 00:07:07;;;;;;;35.35;20.40;;;;;;;9.01;100.00;99148.88;1027415;28;20356;-55
2023/10/27 00:07:39;;;;;;;30.25;19.90;;;;;;;9.03;100.00;99157.41;1028043;28;20290;-55
2023/10/27 00:08:13;;;;;;;38.42;22.45;;;;;;;8.99;100.00;99157.09;1031615;28;20304;-55
2023/10/27 00:08:45;;;;;;;29.38;17.95;;;;;;;8.93;100.00;99158.09;1031721;28;20301;-55
2023/10/27 00:09:16;;;;;;;29.02;17.63;;;;;;;8.90;100.00;99157.78;1031553;28;20301;-55
2023/10/27 00:09:48;;;;;;;29.92;18.88;;;;;;;8.88;100.00;99158.03;1031738;28;20835;-55
2023/10/27 00:10:20;;;;;;;29.33;19.33;;;;;;;8.76;100.00;99156.53;1031674;28;20320;-55
2023/10/27 00:10:52;;;;;;;34.42;18.27;;;;;;;8.71;100.00;99159.91;1031760;28;20424;-54
2023/10/27 00:11:25;;;;;;;33.30;19.40;;;;;;;8.75;100.00;99163.69;1031793;28;20668;-55
2023/10/27 00:11:57;;;;;;;28.58;18.63;;;;;;;8.77;100.00;99158.97;1031726;28;20452;-55
2023/10/27 00:12:28;;;;;;;28.67;17.95;;;;;;;8.77;100.00;99163.47;1031513;28;20324;-55
2023/10/27 00:13:00;;;;;;;29.60;19.10;;;;;;;8.77;100.00;99158.97;1032792;28;20309;-49
2023/10/27 00:13:32;;;;;;;29.33;18.73;;;;;;;8.69;100.00;99162.00;1030253;28;20293;-56
2023/10/27 00:14:04;;;;;;;27.65;17.95;;;;;;;8.68;100.00;99168.38;1031708;28;20640;-55
2023/10/27 00:14:35;;;;;;;30.42;17.48;;;;;;;8.46;100.00;99167.50;1031452;28;20301;-55
2023/10/27 00:15:07;;;;;;;27.52;19.25;;;;;;;8.52;100.00;99163.91;1031800;28;20302;-55
2023/10/27 00:15:39;;;;;;;26.85;18.15;;;;;;;8.56;100.00;99157.88;1031775;28;20308;-55
2023/10/27 00:16:11;;;;;;;26.85;18.05;;;;;;;8.58;100.00;99165.59;1031985;28;20317;-52
2023/10/27 00:16:42;;;;;;;28.85;17.95;;;;;;;8.54;100.00;99165.28;1032439;28;20293;-52
2023/10/27 00:17:14;;;;;;;26.65;18.48;;;;;;;8.62;100.00;99162.19;1031496;28;20315;-52
2023/10/27 00:17:46;;;;;;;30.85;20.23;;;;;;;8.60;100.00;99163.50;1031480;28;20807;-55
2023/10/27 00:18:18;;;;;;;27.55;18.50;;;;;;;8.59;100.00;99159.22;1031610;28;20308;-55
2023/10/27 00:18:49;;;;;;;28.23;17.98;;;;;;;8.70;100.00;99163.63;1027056;28;20297;-55
2023/10/27 00:19:21;;;;;;;28.17;17.98;;;;;;;8.78;100.00;99159.75;1027112;28;20349;-55
2023/10/27 00:19:53;;;;;;;34.72;18.42;;;;;;;8.80;100.00;99161.13;1028338;28;20298;-51
2023/10/27 00:20:25;;;;;;;31.20;17.98;;;;;;;8.74;100.00;99156.75;1027544;28;20309;-52
2023/10/27 00:20:56;;;;;;;28.17;18.95;;;;;;;8.72;100.00;99156.22;1031652;28;20392;-50
2023/10/27 00:21:28;;;;;;;30.45;18.25;;;;;;;8.71;100.00;99159.13;1031107;28;20305;-49
2023/10/27 00:21:59;;;;;;;30.08;17.02;;;;;;;8.74;100.00;99154.13;1027111;28;20306;-49
2023/10/27 00:22:33;;;;;;;27.88;17.70;;;;;;;8.51;100.00;99154.34;1027304;28;20297;-49
2023/10/27 00:23:04;;;;;;;32.08;18.67;;;;;;;8.45;100.00;99161.41;1027182;28;20361;-55
2023/10/27 00:23:36;;;;;;;25.95;18.08;;;;;;;8.55;100.00;99161.56;1028038;28;20368;-55
2023/10/27 00:24:08;;;;;;;23.70;16.33;;;;;;;8.43;100.00;99157.38;1031448;28;20301;-55
2023/10/27 00:24:39;;;;;;;27.70;17.83;;;;;;;8.32;100.00;99159.88;1031606;28;21437;-55
2023/10/27 00:25:12;;;;;;;27.55;17.88;;;;;;;8.27;100.00;99149.19;1031494;28;20665;-55
2023/10/27 00:25:44;;;;;;;27.75;16.50;;;;;;;8.52;100.00;99155.94;1031709;28;21292;-55
2023/10/27 00:26:15;;;;;;;27.95;17.25;;;;;;;8.43;100.00;99154.75;1031692;28;20293;-55
2023/10/27 00:26:52;;;;;;;21.10;14.65;;;;;;;8.35;100.00;99155.97;1031451;28;20313;-55
2023/10/27 00:27:23;;;;;;;24.10;15.75;;;;;;;8.27;100.00;99159.81;1031634;28;20301;-55
2023/10/27 00:27:55;;;;;;;28.88;16.35;;;;;;;8.18;100.00;99155.13;1026853;28;20358;-52
2023/10/27 00:28:27;;;;;;;29.27;16.65;;;;;;;8.22;100.00;99158.94;1027291;28;20298;-51
2023/10/27 00:28:59;;;;;;;22.80;17.27;;;;;;;8.20;100.00;99148.53;1027065;28;20318;-55
2023/10/27 00:29:30;;;;;;;29.40;17.83;;;;;;;8.25;100.00;99158.44;1028212;28;20301;-50
2023/10/27 00:30:03;;;;;;;22.08;15.57;;;;;;;8.25;100.00;99156.59;1031209;28;20300;-51
2023/10/27 00:30:35;;;;;;;29.95;15.88;;;;;;;8.26;100.00;99160.84;1031325;28;20384;-52
2023/10/27 00:31:06;;;;;;;24.98;16.83;;;;;;;8.45;100.00;99155.28;1027317;28;20801;-55
2023/10/27 00:31:38;;;;;;;25.35;14.60;;;;;;;8.47;100.00;99159.31;1028119;28;20290;-50
2023/10/27 00:32:10;;;;;;;23.38;15.50;;;;;;;8.48;100.00;99160.13;1027357;28;20661;-50
2023/10/27 00:32:41;;;;;;;22.08;15.20;;;;;;;8.46;100.00;99156.91;1028778;28;20304;-55
2023/10/27 00:33:13;;;;;;;23.38;15.43;;;;;;;8.42;100.00;99161.09;1027968;28;20807;-52
2023/10/27 00:33:45;;;;;;;21.27;14.18;;;;;;;8.31;100.00;99155.63;1027358;28;20673;-53
2023/10/27 00:34:16;;;;;;;20.35;14.23;;;;;;;8.39;100.00;99153.63;1027435;28;20309;-52
2023/10/27 00:34:48;;;;;;;29.48;16.45;;;;;;;8.41;100.00;99160.28;1027964;28;20328;-51
2023/10/27 00:35:20;;;;;;;23.83;15.95;;;;;;;8.36;100.00;99153.06;1031502;28;20819;-51
2023/10/27 00:35:52;;;;;;;25.10;15.65;;;;;;;8.26;100.00;99162.69;1031281;28;20305;-51
2023/10/27 00:36:24;;;;;;;22.92;15.85;;;;;;;8.38;100.00;99160.78;1031291;28;20707;-51
2023/10/27 00:36:58;;;;;;;22.88;14.57;;;;;;;8.45;100.00;99155.28;1031859;28;20312;-51
2023/10/27 00:37:40;;;;;;;24.23;15.50;;;;;;;8.44;100.00;99154.50;1026132;28;20313;-55
2023/10/27 00:38:12;;;;;;;25.75;15.98;;;;;;;8.54;100.00;99151.19;1022691;28;20078;-52
2023/10/27 00:38:47;;;;;;;20.98;13.88;;;;;;;8.50;100.00;99152.75;1027191;28;20310;-50
2023/10/27 00:39:19;;;;;;;27.23;15.35;;;;;;;8.27;100.00;99154.50;1027738;28;20780;-52
2023/10/27 00:39:51;;;;;;;22.20;14.70;;;;;;;8.49;100.00;99151.09;1032086;28;20829;-49
2023/10/27 00:40:22;;;;;;;28.33;16.38;;;;;;;8.60;100.00;99147.56;1034309;28;20292;-51
2023/10/27 00:40:54;;;;;;;23.20;14.60;;;;;;;8.68;100.00;99155.09;1031070;28;20724;-51
2023/10/27 00:41:25;;;;;;;25.00;15.68;;;;;;;8.71;100.00;99148.50;1030956;28;20297;-50
2023/10/27 00:41:57;;;;;;;24.38;14.80;;;;;;;8.72;100.00;99147.44;1031326;28;20488;-52
2023/10/27 00:42:29;;;;;;;25.33;14.73;;;;;;;8.73;100.00;99141.88;1022997;28;20411;-50
2023/10/27 00:43:06;;;;;;;23.58;14.57;;;;;;;8.72;100.00;99142.94;1023182;29;20314;-51
2023/10/27 00:43:37;;;;;;;32.55;15.70;;;;;;;8.73;100.00;99141.09;1024619;28;20310;-55
2023/10/27 00:44:09;;;;;;;26.85;17.52;;;;;;;8.72;100.00;99134.97;1028039;28;20301;-55
2023/10/27 00:44:41;;;;;;;24.83;16.92;;;;;;;8.71;100.00;99138.69;1031090;28;20305;-55
2023/10/27 00:45:13;;;;;;;23.90;15.43;;;;;;;8.69;100.00;99146.09;1031407;28;20343;-55
2023/10/27 00:45:51;;;;;;;25.08;15.20;;;;;;;8.69;100.00;99130.16;1031378;28;20320;-55
2023/10/27 00:46:23;;;;;;;25.95;16.58;;;;;;;8.66;100.00;99141.28;1032254;28;20796;-55
2023/10/27 00:46:55;;;;;;;31.05;16.33;;;;;;;8.68;100.00;99133.88;1030547;28;20721;-55
2023/10/27 00:47:28;;;;;;;26.38;16.55;;;;;;;8.67;100.00;99133.06;1030792;28;20316;-55
2023/10/27 00:48:00;;;;;;;24.13;15.60;;;;;;;8.68;100.00;99137.31;1031698;28;20332;-54
2023/10/27 00:48:32;;;;;;;27.17;16.38;;;;;;;8.70;100.00;99137.06;1032050;28;20335;-51
2023/10/27 00:49:04;;;;;;;25.27;16.17;;;;;;;8.68;100.00;99133.88;1031883;28;20273;-51
2023/10/27 00:49:35;;;;;;;30.35;16.63;;;;;;;8.65;100.00;99137.81;1031482;28;20316;-51
2023/10/27 00:50:07;;;;;;;31.73;17.63;;;;;;;8.64;100.00;99140.72;1031541;28;20344;-50
2023/10/27 00:50:39;;;;;;;28.35;16.40;;;;;;;8.67;100.00;99142.88;1026886;28;20302;-49
2023/10/27 00:51:11;;;;;;;29.23;18.48;;;;;;;8.71;100.00;99132.56;1027254;28;20393;-51
2023/10/27 00:51:46;;;;;;;25.42;16.50;;;;;;;8.70;100.00;99129.13;1022964;28;20298;-50
2023/10/27 00:52:19;;;;;;;27.75;17.27;;;;;;;8.66;100.00;99131.47;1024035;28;20313;-50
2023/10/27 00:52:52;;;;;;;23.98;15.23;;;;;;;8.58;100.00;99134.53;1027584;28;20294;-51
2023/10/27 00:53:26;;;;;;;28.98;15.80;;;;;;;8.56;100.00;99135.84;1032753;28;20297;-51
2023/10/27 00:53:58;;;;;;;26.60;16.23;;;;;;;8.59;100.00;99130.03;1035082;28;20852;-55
2023/10/27 00:54:30;;;;;;;30.83;17.65;;;;;;;8.64;100.00;99128.25;1031317;28;20290;-55
2023/10/27 00:55:05;;;;;;;25.50;16.33;;;;;;;8.65;100.00;99131.69;1033811;28;20779;-55
2023/10/27 00:55:39;;;;;;;24.92;15.88;;;;;;;8.62;100.00;99140.16;1025603;28;20298;-56
2023/10/27 00:56:11;;;;;;;26.08;16.75;;;;;;;8.61;100.00;99133.25;1027164;28;20306;-49
2023/10/27 00:56:44;;;;;;;23.77;15.52;;;;;;;8.61;100.00;99127.94;1027174;28;20309;-51
2023/10/27 00:57:16;;;;;;;30.90;18.17;;;;;;;8.64;100.00;99138.06;1027213;28;20864;-52
2023/10/27 00:57:49;;;;;;;33.92;18.23;;;;;;;8.65;100.00;99135.16;1023105;29;20298;-49
2023/10/27 00:58:21;;;;;;;27.08;18.95;;;;;;;8.72;100.00;99128.88;1022806;28;20303;-51
2023/10/27 00:58:52;;;;;;;30.05;17.85;;;;;;;8.69;100.00;99135.47;1027282;28;20393;-49
2023/10/27 00:59:24;;;;;;;30.10;17.33;;;;;;;8.62;100.00;99135.66;1030060;28;20692;-53
2023/10/27 00:59:56;;;;;;;28.48;17.25;;;;;;;8.63;100.00;99125.84;1031641;28;20309;-55
2023/10/27 01:00:29;;;;;;;23.70;15.75;;;;;;;8.57;100.00;99132.13;1027128;28;22615;-55
2023/10/27 01:01:01;;;;;;;25.95;17.45;;;;;;;8.49;100.00;99121.91;1023051;29;20310;-55
2023/10/27 01:01:33;;;;;;;28.50;17.70;;;;;;;8.46;100.00;99135.69;1024081;28;20333;-55
2023/10/27 01:02:05;;;;;;;28.95;16.27;;;;;;;8.41;100.00;99131.09;1022105;28;21168;-56
2023/10/27 01:02:36;;;;;;;26.73;15.80;;;;;;;8.39;100.00;99129.75;1019173;29;20308;-51
2023/10/27 01:03:09;;;;;;;26.35;16.95;;;;;;;8.38;100.00;99138.75;1025265;28;20317;-54
2023/10/27 01:03:41;;;;;;;32.58;16.90;;;;;;;8.35;100.00;99130.22;1027120;28;20309;-51
2023/10/27 01:04:13;;;;;;;22.80;15.48;;;;;;;8.35;100.00;99129.44;1027004;28;20838;-50
2023/10/27 01:04:45;;;;;;;24.70;16.33;;;;;;;8.33;100.00;99131.50;1027162;28;20306;-50
2023/10/27 01:05:17;;;;;;;27.55;16.88;;;;;;;8.34;100.00;99125.97;1026987;28;20429;-50
2023/10/27 01:05:48;;;;;;;28.52;18.45;;;;;;;8.32;100.00;99136.00;1027167;28;20302;-52
2023/10/27 01:06:20;;;;;;;25.73;17.95;;;;;;;8.32;100.00;99136.00;1027523;28;20298;-50
2023/10/27 01:06:52;;;;;;;31.45;18.55;;;;;;;8.34;100.00;99128.63;1025411;28;20772;-55
2023/10/27 01:07:24;;;;;;;32.78;16.85;;;;;;;8.33;100.00;99136.81;1027214;28;20302;-55
2023/10/27 01:07:56;;;;;;;29.95;18.10;;;;;;;8.29;100.00;99131.19;1029504;28;20684;-55
2023/10/27 01:08:27;;;;;;;24.73;16.02;;;;;;;8.30;100.00;99135.44;1022049;29;20310;-55
2023/10/27 01:08:59;;;;;;;32.60;19.45;;;;;;;8.36;100.00;99137.16;1026380;28;20664;-55
2023/10/27 01:09:30;;;;;;;26.92;17.90;;;;;;;8.36;100.00;99137.16;1023041;29;20301;-51
2023/10/27 01:10:02;;;;;;;37.03;19.10;;;;;;;8.38;100.00;99138.75;1023493;28;20318;-52
2023/10/27 01:10:34;;;;;;;34.50;20.48;;;;;;;8.41;100.00;99132.94;1024370;28;20816;-55
2023/10/27 01:11:07;;;;;;;30.10;18.38;;;;;;;8.33;100.00;99137.63;1027976;28;20312;-53
2023/10/27 01:11:39;;;;;;;30.38;17.00;;;;;;;8.35;100.00;99135.53;1027483;28;20364;-55
2023/10/27 01:12:11;;;;;;;27.65;18.85;;;;;;;8.35;100.00;99130.22;1027478;28;20309;-55
2023/10/27 01:12:46;;;;;;;31.35;17.67;;;;;;;8.36;100.00;99131.03;1025342;28;20307;-55
2023/10/27 01:13:18;;;;;;;31.38;17.42;;;;;;;8.39;100.00;99135.06;1027508;28;20672;-55
2023/10/27 01:13:53;;;;;;;27.35;16.67;;;;;;;8.31;100.00;99134.41;1021428;28;20431;-55
2023/10/27 01:14:27;;;;;;;30.17;19.10;;;;;;;8.11;100.00;99128.78;1017326;29;20304;-50
2023/10/27 01:14:58;;;;;;;24.77;14.75;;;;;;;8.06;100.00;99126.84;1019278;29;20299;-50
2023/10/27 01:15:30;;;;;;;28.05;15.95;;;;;;;8.04;100.00;99133.44;1020151;28;20308;-52
2023/10/27 01:16:02;;;;;;;30.23;18.25;;;;;;;8.04;100.00;99134.25;1023617;28;20313;-51
2023/10/27 01:16:33;;;;;;;23.63;15.52;;;;;;;8.23;100.00;99132.16;1027272;28;20302;-51
2023/10/27 01:17:05;;;;;;;25.70;16.38;;;;;;;8.40;100.00;99131.34;1027323;28;20298;-52
2023/10/27 01:17:37;;;;;;;27.95;16.77;;;;;;;8.48;100.00;99131.72;1027247;28;20649;-53
2023/10/27 01:18:08;;;;;;;28.30;15.77;;;;;;;8.37;100.00;99132.66;1027053;28;20333;-49
2023/10/27 01:18:40;;;;;;;28.25;16.77;;;;;;;8.39;100.00;99129.75;1026069;28;20302;-51
2023/10/27 01:19:12;;;;;;;28.50;15.85;;;;;;;8.48;100.00;99138.88;1023323;28;20669;-51
2023/10/27 01:19:44;;;;;;;27.13;17.85;;;;;;;8.41;100.00;99125.00;1028860;28;20316;-55
2023/10/27 01:20:16;;;;;;;32.00;16.90;;;;;;;8.45;100.00;99128.75;1031161;28;20335;-55
2023/10/27 01:20:48;;;;;;;24.27;16.15;;;;;;;8.48;100.00;99128.28;1026841;28;20824;-55
2023/10/27 01:21:19;;;;;;;29.40;18.83;;;;;;;8.45;100.00;99128.75;1025086;28;20331;-55
2023/10/27 01:21:51;;;;;;;24.67;16.15;;;;;;;8.43;100.00;99120.25;1019704;29;20311;-55
2023/10/27 01:22:23;;;;;;;29.67;17.63;;;;;;;8.54;100.00;99124.66;1019322;29;20798;-55
2023/10/27 01:22:54;;;;;;;30.65;18.95;;;;;;;8.50;100.00;99120.91;1023367;28;20294;-55
2023/10/27 01:23:26;;;;;;;30.30;19.05;;;;;;;8.43;100.00;99125.56;1024650;28;20705;-55
2023/10/27 01:23:57;;;;;;;28.88;19.33;;;;;;;8.33;100.00;99119.06;1026044;28;20309;-55
2023/10/27 01:24:29;;;;;;;38.08;20.25;;;;;;;8.36;100.00;99121.22;1022117;29;20879;-55
2023/10/27 01:25:01;;;;;;;31.67;19.75;;;;;;;8.44;100.00;99127.16;1026176;28;20310;-55
2023/10/27 01:25:32;;;;;;;29.05;18.90;;;;;;;8.31;100.00;99126.44;1023485;28;20295;-55
2023/10/27 01:26:05;;;;;;;36.25;19.67;;;;;;;8.41;100.00;99130.31;1024527;28;20374;-55
2023/10/27 01:26:37;;;;;;;35.22;19.13;;;;;;;8.40;100.00;99126.03;1030513;28;20305;-55
2023/10/27 01:27:08;;;;;;;32.20;19.23;;;;;;;8.34;100.00;99128.63;1024085;28;20306;-55
2023/10/27 01:27:40;;;;;;;27.15;17.65;;;;;;;8.31;100.00;99125.63;1023090;28;20337;-55
2023/10/27 01:28:12;;;;;;;30.65;18.02;;;;;;;8.30;100.00;99132.78;1023135;28;20342;-55
2023/10/27 01:28:44;;;;;;;30.92;17.65;;;;;;;8.27;100.00;99130.63;1026089;28;20314;-55
2023/10/27 01:29:16;;;;;;;28.38;16.05;;;;;;;8.25;100.00;99121.31;1026698;28;20679;-55
2023/10/27 01:29:48;;;;;;;26.00;16.38;;;;;;;8.22;100.00;99130.56;1024954;28;20293;-55
2023/10/27 01:30:19;;;;;;;27.13;15.93;;;;;;;8.16;100.00;99130.69;1024099;28;20302;-51
2023/10/27 01:30:51;;;;;;;25.98;15.90;;;;;;;8.11;100.00;99128.78;1023139;28;20298;-52
2023/10/27 01:31:23;;;;;;;25.10;16.15;;;;;;;8.11;100.00;99128.78;1023717;28;20303;-52
2023/10/27 01:31:55;;;;;;;24.33;15.82;;;;;;;8.09;100.00;99122.91;1024999;28;20309;-49
2023/10/27 01:32:27;;;;;;;24.55;15.65;;;;;;;7.98;100.00;99129.13;1024559;28;20373;-52
2023/10/27 01:32:59;;;;;;;30.77;17.35;;;;;;;7.96;100.00;99128.56;1023343;28;20353;-49
2023/10/27 01:33:32;;;;;;;25.48;16.15;;;;;;;7.93;100.00;99129.00;1023904;28;20287;-51
2023/10/27 01:34:06;;;;;;;27.00;16.95;;;;;;;8.15;100.00;99129.91;1023069;28;20369;-52
2023/10/27 01:34:38;;;;;;;24.65;16.60;;;;;;;8.23;100.00;99126.84;1023800;28;20891;-50
2023/10/27 01:35:09;;;;;;;29.05;18.58;;;;;;;8.35;100.00;99124.94;1027057;28;20310;-51
2023/10/27 01:35:41;;;;;;;27.38;16.27;;;;;;;8.37;100.00;99127.34;1026967;28;20376;-50
2023/10/27 01:36:13;;;;;;;28.15;17.52;;;;;;;8.43;100.00;99126.34;1026966;28;20325;-49
2023/10/27 01:36:44;;;;;;;37.70;20.55;;;;;;;8.46;100.00;99130.38;1023525;28;20307;-55
2023/10/27 01:37:16;;;;;;;29.48;16.20;;;;;;;8.51;100.00;99133.91;1025066;28;20501;-55
2023/10/27 01:37:47;;;;;;;24.48;16.95;;;;;;;8.38;100.00;99128.13;1027659;28;20294;-51
2023/10/27 01:38:19;;;;;;;26.60;15.75;;;;;;;8.41;100.00;99122.34;1027993;28;20302;-55
2023/10/27 01:38:52;;;;;;;31.77;16.92;;;;;;;8.36;100.00;99125.72;1026469;28;20395;-55
2023/10/27 01:39:24;;;;;;;29.48;18.45;;;;;;;8.46;100.00;99125.06;1025683;28;20293;-55
2023/10/27 01:39:56;;;;;;;33.15;21.13;;;;;;;8.35;100.00;99127.59;1024965;28;20310;-55
2023/10/27 01:40:28;;;;;;;32.05;19.30;;;;;;;8.37;100.00;99122.03;1022981;28;20317;-54
2023/10/27 01:41:00;;;;;;;30.30;18.23;;;;;;;8.38;100.00;99128.13;1025337;28;20294;-55
2023/10/27 01:41:31;;;;;;;29.55;18.45;;;;;;;8.38;100.00;99128.94;1023217;28;20299;-55
2023/10/27 01:42:03;;;;;;;30.65;19.70;;;;;;;8.49;100.00;99124.56;1026864;28;20309;-55
2023/10/27 01:42:36;;;;;;;29.08;18.55;;;;;;;8.44;100.00;99121.84;1030099;28;20780;-55
2023/10/27 01:43:09;;;;;;;33.60;19.02;;;;;;;8.40;100.00;99126.03;1026966;28;20384;-55
2023/10/27 01:43:40;;;;;;;32.85;19.10;;;;;;;8.42;100.00;99124.75;1028825;28;20313;-56
2023/10/27 01:44:12;;;;;;;34.03;20.10;;;;;;;8.45;100.00;99126.91;1026885;28;20306;-55
2023/10/27 01:44:43;;;;;;;33.67;20.35;;;;;;;8.42;100.00;99123.94;1024649;28;20311;-55
2023/10/27 01:45:15;;;;;;;33.53;19.10;;;;;;;8.50;100.00;99118.25;1026754;28;20297;-55
2023/10/27 01:45:47;;;;;;;33.00;19.33;;;;;;;8.61;100.00;99122.63;1026969;28;20313;-55
2023/10/27 01:46:18;;;;;;;32.17;19.77;;;;;;;8.55;100.00;99128.91;1024519;28;20303;-53
2023/10/27 01:46:50;;;;;;;33.17;19.08;;;;;;;8.36;100.00;99126.53;1024981;28;20310;-55
2023/10/27 01:47:24;;;;;;;31.27;20.17;;;;;;;8.54;100.00;99125.47;1030147;28;20309;-55
2023/10/27 01:47:55;;;;;;;32.35;17.48;;;;;;;8.42;100.00;99127.41;1027025;28;20297;-51
2023/10/27 01:48:27;;;;;;;35.53;19.75;;;;;;;8.49;100.00;99124.56;1023245;28;20306;-52
2023/10/27 01:48:59;;;;;;;32.08;19.42;;;;;;;8.50;100.00;99126.22;1023487;28;20298;-55
2023/10/27 01:49:30;;;;;;;35.70;20.10;;;;;;;8.58;100.00;99128.44;1023578;28;20314;-52
2023/10/27 01:50:02;;;;;;;37.67;19.88;;;;;;;8.51;100.00;99127.81;1022924;28;20400;-50
2023/10/27 01:50:34;;;;;;;32.72;19.45;;;;;;;8.63;100.00;99125.84;1024849;28;20673;-54
2023/10/27 01:51:05;;;;;;;31.00;19.48;;;;;;;8.64;100.00;99122.13;1023174;28;20329;-55
2023/10/27 01:51:37;;;;;;;33.20;18.67;;;;;;;8.69;100.00;99124.84;1023587;28;20787;-55
2023/10/27 01:52:09;;;;;;;32.85;19.02;;;;;;;8.80;100.00;99131.91;1025129;28;20310;-55
2023/10/27 01:52:41;;;;;;;35.63;20.17;;;;;;;8.72;100.00;99119.06;1030440;28;20338;-55
2023/10/27 01:53:13;;;;;;;32.45;19.17;;;;;;;8.71;100.00;99128.06;1027206;28;20689;-52
2023/10/27 01:53:45;;;;;;;34.55;19.00;;;;;;;8.81;100.00;99117.59;1026286;28;20298;-52
2023/10/27 01:54:16;;;;;;;35.55;20.23;;;;;;;8.86;100.00;99120.31;1023408;28;20302;-50
2023/10/27 01:54:48;;;;;;;30.85;17.65;;;;;;;8.87;100.00;99116.59;1023415;28;20624;-53
2023/10/27 01:55:20;;;;;;;36.50;20.98;;;;;;;8.87;100.00;99121.91;1023256;28;20309;-50
2023/10/27 01:55:52;;;;;;;33.03;20.42;;;;;;;8.90;100.00;99115.31;1023687;28;20303;-50
2023/10/27 01:56:23;;;;;;;35.08;20.65;;;;;;;8.79;100.00;99119.69;1026842;28;20317;-51
2023/10/27 01:56:55;;;;;;;37.13;20.88;;;;;;;8.83;100.00;99115.50;1024976;28;20656;-52
2023/10/27 01:57:27;;;;;;;33.53;19.40;;;;;;;8.88;100.00;99120.84;1027122;28;20294;-49
2023/10/27 01:58:01;;;;;;;34.75;18.45;;;;;;;8.66;100.00;99117.38;1030996;28;20298;-50
2023/10/27 01:58:32;;;;;;;39.38;20.88;;;;;;;8.73;100.00;99115.34;1031099;28;20301;-48
2023/10/27 01:59:04;;;;;;;48.88;20.40;;;;;;;8.70;100.00;99115.84;1024925;28;20323;-52
2023/10/27 01:59:36;;;;;;;32.20;19.02;;;;;;;8.67;100.00;99121.63;1030320;28;20673;-50
2023/10/27 02:00:09;;;;;;;37.65;21.08;;;;;;;8.71;100.00;99112.13;1026962;28;20312;-51
2023/10/27 02:00:44;;;;;;;36.85;21.42;;;;;;;8.90;100.00;99117.94;1018468;28;20308;-50
2023/10/27 02:01:17;;;;;;;35.03;18.42;;;;;;;8.85;100.00;99117.91;1021685;28;20302;-50
2023/10/27 02:01:49;;;;;;;35.22;20.92;;;;;;;8.73;100.00;99118.00;1022855;28;20299;-51
2023/10/27 02:02:21;;;;;;;37.67;19.60;;;;;;;8.75;100.00;99113.25;1024137;28;20317;-55
2023/10/27 02:02:52;;;;;;;35.83;20.42;;;;;;;8.82;100.00;99113.88;1029265;28;20306;-49
2023/10/27 02:03:24;;;;;;;33.80;20.00;;;;;;;8.84;100.00;99114.44;1031315;28;20337;-55
2023/10/27 02:03:56;;;;;;;40.70;21.52;;;;;;;8.73;100.00;99106.56;1031048;28;20428;-55
2023/10/27 02:04:28;;;;;;;33.42;20.75;;;;;;;8.73;100.00;99110.03;1026708;28;20309;-55
2023/10/27 02:05:02;;;;;;;30.75;20.33;;;;;;;8.91;100.00;99112.41;1024406;28;20306;-55
2023/10/27 02:05:34;;;;;;;39.63;20.73;;;;;;;8.87;100.00;99110.50;1022804;29;20309;-50
2023/10/27 02:06:06;;;;;;;34.35;20.25;;;;;;;8.81;100.00;99106.97;1024965;28;20299;-52
2023/10/27 02:06:38;;;;;;;40.22;20.08;;;;;;;8.82;100.00;99107.78;1021685;29;20304;-55
2023/10/27 02:07:10;;;;;;;31.08;19.13;;;;;;;8.80;100.00;99109.88;1017169;29;20304;-54
2023/10/27 02:07:41;;;;;;;36.88;21.88;;;;;;;8.77;100.00;99111.19;1019181;29;20300;-55
2023/10/27 02:08:13;;;;;;;34.28;20.40;;;;;;;8.69;100.00;99108.94;1017554;29;20690;-55
2023/10/27 02:08:45;;;;;;;34.40;20.73;;;;;;;8.72;100.00;99105.78;1016997;29;20315;-55
2023/10/27 02:09:16;;;;;;;35.85;19.35;;;;;;;8.85;100.00;99105.44;1020849;29;20795;-55
2023/10/27 02:09:48;;;;;;;33.45;20.75;;;;;;;8.88;100.00;99107.59;1023085;28;20306;-54
2023/10/27 02:10:20;;;;;;;38.92;23.00;;;;;;;8.89;100.00;99103.88;1025351;28;20381;-54
2023/10/27 02:10:52;;;;;;;38.03;20.80;;;;;;;8.93;100.00;99112.94;1030860;28;20297;-55
2023/10/27 02:11:23;;;;;;;39.22;20.85;;;;;;;8.82;100.00;99108.56;1028537;28;20302;-55
2023/10/27 02:11:55;;;;;;;36.95;20.70;;;;;;;8.83;100.00;99115.50;1030767;28;20301;-54
2023/10/27 02:12:27;;;;;;;32.42;20.17;;;;;;;8.89;100.00;99114.50;1023581;28;20290;-55
2023/10/27 02:12:58;;;;;;;36.63;21.95;;;;;;;8.78;100.00;99112.78;1023559;28;20302;-54
2023/10/27 02:13:30;;;;;;;40.10;20.63;;;;;;;8.70;100.00;99115.84;1015676;29;20649;-55
2023/10/27 02:14:01;;;;;;;36.92;20.83;;;;;;;8.81;100.00;99116.78;1018992;28;20675;-55
2023/10/27 02:14:33;;;;;;;32.88;20.42;;;;;;;8.89;100.00;99114.50;1021004;28;20330;-55
2023/10/27 02:15:06;;;;;;;36.83;21.25;;;;;;;8.96;100.00;99119.63;1027424;28;20289;-55
2023/10/27 02:15:37;;;;;;;30.75;19.92;;;;;;;9.05;100.00;99123.47;1027370;28;20309;-55
2023/10/27 02:16:10;;;;;;;35.55;20.17;;;;;;;9.03;100.00;99119.41;1023471;28;20302;-55
2023/10/27 02:16:44;;;;;;;32.47;20.08;;;;;;;9.07;100.00;99112.59;1026268;28;20761;-55
2023/10/27 02:17:16;;;;;;;38.13;20.77;;;;;;;9.10;100.00;99114.75;1024270;28;20306;-55
2023/10/27 02:17:47;;;;;;;35.30;20.40;;;;;;;9.02;100.00;99112.50;1027533;28;20685;-55
2023/10/27 02:18:19;;;;;;;31.08;18.92;;;;;;;9.10;100.00;99114.75;1029923;28;20372;-55
2023/10/27 02:18:50;;;;;;;30.92;19.40;;;;;;;9.07;100.00;99113.38;1028064;28;20301;-55
2023/10/27 02:19:22;;;;;;;39.85;22.42;;;;;;;9.03;100.00;99104.28;1025530;28;20314;-55
2023/10/27 02:19:57;;;;;;;38.15;21.23;;;;;;;9.14;100.00;99107.88;1024842;28;20704;-55
2023/10/27 02:20:30;;;;;;;43.22;19.42;;;;;;;9.06;100.00;99111.78;1023601;28;20306;-55
2023/10/27 02:21:03;;;;;;;35.78;21.55;;;;;;;9.05;100.00;99109.38;1024822;28;20307;-54
2023/10/27 02:21:34;;;;;;;33.63;19.48;;;;;;;9.13;100.00;99116.91;1022782;28;20306;-51
2023/10/27 02:22:06;;;;;;;36.03;21.13;;;;;;;9.17;100.00;99105.53;1021921;28;20399;-50
2023/10/27 02:22:38;;;;;;;39.70;20.83;;;;;;;9.18;100.00;99107.13;1019412;29;20303;-51
2023/10/27 02:23:09;;;;;;;36.58;20.20;;;;;;;9.10;100.00;99112.09;1023308;28;20307;-49
2023/10/27 02:23:41;;;;;;;34.70;20.40;;;;;;;9.14;100.00;99114.00;1022085;28;20317;-55
2023/10/27 02:24:12;;;;;;;37.10;19.63;;;;;;;8.93;100.00;99112.16;1019489;29;20882;-55
2023/10/27 02:24:44;;;;;;;32.88;19.73;;;;;;;8.91;100.00;99115.06;1024564;28;20305;-55
2023/10/27 02:25:16;;;;;;;41.05;19.67;;;;;;;8.81;100.00;99114.13;1024533;28;20294;-55
2023/10/27 02:25:48;;;;;;;31.00;19.90;;;;;;;8.95;100.00;99108.19;1027471;28;20302;-55
2023/10/27 02:26:20;;;;;;;35.10;19.73;;;;;;;8.95;100.00;99113.50;1029765;28;20716;-49
2023/10/27 02:26:51;;;;;;;31.88;18.77;;;;;;;8.75;100.00;99113.25;1025260;28;20309;-52
2023/10/27 02:27:23;;;;;;;39.28;20.73;;;;;;;8.72;100.00;99111.09;1026905;28;20305;-49